Time;durP1;ratioP1;P1;durP2;ratioP2;P2;SDS_P1;SDS_P2;PMS_P1;PMS_P2;Temp;Humidity;BMP_temperature;BMP_pressure;BME280_temperature;BME280_humidity;BME280_pressure;Samples;Min_cycle;Max_cycle;Signal;HPM_P1;HPM_P2
2023/04/15 00:00:42;;;;;;;;;;;11.30;66.40;;;;;;5102071;27;93580;-41
2023/04/15 00:03:07;;;;;;;;;;;11.30;66.40;;;;;;5104363;27;93079;-41
2023/04/15 00:05:33;;;;;;;;;;;11.30;66.40;;;;;;5102065;27;92139;-41
2023/04/15 00:08:00;;;;;;;;;;;11.30;66.50;;;;;;5101804;27;93232;-41
2023/04/15 00:10:26;;;;;;;;;;;11.30;66.50;;;;;;5098782;27;92730;-41
2023/04/15 00:12:51;;;;;;;;;;;11.20;66.50;;;;;;5100340;27;93948;-41
2023/04/15 00:15:17;;;;;;;;;;;11.20;66.60;;;;;;5099680;27;95358;-41
2023/04/15 00:17:42;;;;;;;;;;;11.20;66.50;;;;;;5101563;27;92183;-41
2023/04/15 00:20:09;;;;;;;;;;;11.20;66.50;;;;;;5101287;27;92745;-41
2023/04/15 00:22:35;;;;;;;;;;;11.20;66.60;;;;;;5101102;27;94513;-41
2023/04/15 00:25:00;;;;;;;;;;;11.20;66.60;;;;;;5104607;27;92110;-41
2023/04/15 00:27:26;;;;;;;;;;;11.20;66.70;;;;;;5100946;27;94637;-41
2023/04/15 00:29:52;;;;;;;;;;;11.20;66.60;;;;;;5101782;27;92712;-41
2023/04/15 00:32:17;;;;;;;;;;;11.10;66.50;;;;;;5101971;27;92502;-41
2023/04/15 00:34:43;;;;;;;;;;;11.20;66.70;;;;;;5100747;27;93736;-41
2023/04/15 00:37:09;;;;;;;;;;;11.20;66.70;;;;;;5101190;27;92181;-41
2023/04/15 00:39:34;;;;;;;;;;;11.10;66.60;;;;;;5100714;27;94029;-41
2023/04/15 00:42:01;;;;;;;;;;;11.10;66.60;;;;;;5100678;27;94653;-41
2023/04/15 00:44:26;;;;;;;;;;;11.10;66.70;;;;;;5101089;27;92182;-41
2023/04/15 00:46:52;;;;;;;;;;;11.10;66.80;;;;;;5099757;27;93664;-41
2023/04/15 00:49:18;;;;;;;;;;;11.10;66.80;;;;;;5101676;27;92674;-41
2023/04/15 00:51:43;;;;;;;;;;;11.10;66.80;;;;;;5101162;27;94493;-41
2023/04/15 00:54:09;;;;;;;;;;;11.10;66.80;;;;;;5100334;27;94377;-41
2023/04/15 00:56:35;;;;;;;;;;;11.10;66.70;;;;;;5101372;27;91495;-41
2023/04/15 00:59:01;;;;;;;;;;;11.10;66.80;;;;;;5100921;27;93216;-41
2023/04/15 01:01:27;;;;;;;;;;;11.00;66.80;;;;;;5100282;27;94534;-41
2023/04/15 01:03:54;;;;;;;;;;;11.00;66.80;;;;;;5100049;27;93103;-41
2023/04/15 01:06:20;;;;;;;;;;;11.10;66.90;;;;;;5100540;27;94619;-41
2023/04/15 01:08:45;;;;;;;;;;;11.00;66.80;;;;;;5103197;27;94381;-41
2023/04/15 01:11:11;;;;;;;;;;;11.00;66.90;;;;;;5100711;27;93676;-41
2023/04/15 01:13:37;;;;;;;;;;;11.00;66.90;;;;;;5099398;27;96443;-41
2023/04/15 01:16:02;;;;;;;;;;;11.00;66.90;;;;;;5100794;27;92102;-41
2023/04/15 01:18:28;;;;;;;;;;;11.00;66.90;;;;;;5100261;27;93753;-41
2023/04/15 01:20:54;;;;;;;;;;;10.90;66.90;;;;;;5100919;27;92359;-41
2023/04/15 01:23:21;;;;;;;;;;;10.90;66.90;;;;;;5100701;27;92151;-41
2023/04/15 01:25:48;;;;;;;;;;;10.90;66.90;;;;;;5100812;27;93749;-41
2023/04/15 01:28:13;;;;;;;;;;;10.90;66.90;;;;;;5099442;27;95479;-41
2023/04/15 01:30:39;;;;;;;;;;;10.90;66.90;;;;;;5095389;27;92001;-41
2023/04/15 01:33:05;;;;;;;;;;;10.90;67.00;;;;;;5099387;27;94587;-41
2023/04/15 01:35:31;;;;;;;;;;;10.90;67.00;;;;;;5100243;27;92176;-41
2023/04/15 01:37:59;;;;;;;;;;;10.90;67.00;;;;;;5100386;27;93128;-41
2023/04/15 01:40:24;;;;;;;;;;;10.90;67.10;;;;;;5099877;27;95110;-41
2023/04/15 01:42:50;;;;;;;;;;;10.80;67.10;;;;;;5100252;27;92196;-41
2023/04/15 01:45:16;;;;;;;;;;;10.80;67.00;;;;;;5100515;27;93964;-41
2023/04/15 01:47:42;;;;;;;;;;;10.90;67.00;;;;;;5099326;27;94273;-41
2023/04/15 01:50:08;;;;;;;;;;;10.90;67.00;;;;;;5103196;27;92175;-41
2023/04/15 01:52:34;;;;;;;;;;;10.80;67.10;;;;;;5098591;27;95518;-41
2023/04/15 01:55:00;;;;;;;;;;;10.80;67.10;;;;;;5100314;27;92304;-41
2023/04/15 01:57:25;;;;;;;;;;;10.80;67.10;;;;;;5100153;27;92684;-41
2023/04/15 01:59:51;;;;;;;;;;;10.80;67.10;;;;;;5099515;27;94364;-41
2023/04/15 02:02:16;;;;;;;;;;;10.80;67.20;;;;;;5099789;27;92196;-41
2023/04/15 02:04:42;;;;;;;;;;;10.80;67.10;;;;;;5099798;27;94034;-41
2023/04/15 02:07:07;;;;;;;;;;;10.80;67.70;;;;;;5099328;27;94545;-41
2023/04/15 02:09:33;;;;;;;;;;;10.80;67.10;;;;;;5100126;27;91410;-41
2023/04/15 02:11:59;;;;;;;;;;;10.70;67.20;;;;;;5102389;27;93313;-41
2023/04/15 02:14:25;;;;;;;;;;;10.70;67.20;;;;;;5099459;27;92341;-41
2023/04/15 02:16:50;;;;;;;;;;;10.70;67.20;;;;;;5098611;27;92968;-41
2023/04/15 02:19:16;;;;;;;;;;;10.70;67.20;;;;;;5099245;27;93648;-41
2023/04/15 02:21:42;;;;;;;;;;;10.70;67.20;;;;;;5099752;27;92403;-41
2023/04/15 02:24:07;;;;;;;;;;;10.70;67.20;;;;;;5099699;27;94033;-41
2023/04/15 02:26:32;;;;;;;;;;;10.70;67.20;;;;;;5098910;27;94835;-41
2023/04/15 02:28:58;;;;;;;;;;;10.60;67.10;;;;;;5099736;27;92251;-41
2023/04/15 02:31:24;;;;;;;;;;;10.60;67.20;;;;;;5099979;27;92580;-41
2023/04/15 02:33:49;;;;;;;;;;;10.60;67.30;;;;;;5102909;27;93505;-41
2023/04/15 02:36:15;;;;;;;;;;;10.60;67.80;;;;;;5099472;27;92750;-41
2023/04/15 02:38:41;;;;;;;;;;;10.60;67.30;;;;;;5099287;27;92788;-41
2023/04/15 02:41:10;;;;;;;;;;;10.60;67.30;;;;;;5098820;27;93174;-41
2023/04/15 02:43:35;;;;;;;;;;;10.60;67.20;;;;;;5099521;27;93985;-41
2023/04/15 02:46:01;;;;;;;;;;;10.60;67.20;;;;;;5097633;27;94719;-41
2023/04/15 02:48:26;;;;;;;;;;;10.60;67.20;;;;;;5098972;27;92104;-41
2023/04/15 02:50:52;;;;;;;;;;;10.60;67.30;;;;;;5099404;27;92367;-41
2023/04/15 02:53:18;;;;;;;;;;;10.60;67.30;;;;;;5098534;27;95401;-41
2023/04/15 02:55:44;;;;;;;;;;;10.60;67.20;;;;;;5102679;27;92230;-41
2023/04/15 02:58:09;;;;;;;;;;;10.50;67.20;;;;;;5099344;27;92235;-41
2023/04/15 03:00:35;;;;;;;;;;;10.50;67.20;;;;;;5099638;27;92183;-41
2023/04/15 03:03:04;;;;;;;;;;;10.50;67.30;;;;;;5099023;27;93861;-41
2023/04/15 03:05:29;;;;;;;;;;;10.50;67.30;;;;;;5097747;27;95315;-41
2023/04/15 03:07:55;;;;;;;;;;;10.50;67.30;;;;;;5099133;27;92170;-41
2023/04/15 03:10:21;;;;;;;;;;;10.50;67.30;;;;;;5098830;27;93841;-41
2023/04/15 03:12:46;;;;;;;;;;;10.50;67.30;;;;;;5098093;27;94529;-41
2023/04/15 03:15:12;;;;;;;;;;;10.40;67.20;;;;;;5098516;27;92160;-41
2023/04/15 03:17:37;;;;;;;;;;;10.40;67.20;;;;;;5101624;27;92458;-41
2023/04/15 03:20:04;;;;;;;;;;;10.40;67.30;;;;;;5098991;27;92197;-41
2023/04/15 03:22:32;;;;;;;;;;;10.40;67.30;;;;;;5098872;27;93803;-41
2023/04/15 03:24:58;;;;;;;;;;;10.40;67.30;;;;;;5098436;27;92275;-41
2023/04/15 03:27:24;;;;;;;;;;;10.40;67.20;;;;;;5094579;27;92179;-41
2023/04/15 03:29:49;;;;;;;;;;;10.40;67.30;;;;;;5098297;27;93991;-41
2023/04/15 03:32:15;;;;;;;;;;;10.40;67.30;;;;;;5094049;27;93550;-41
2023/04/15 03:34:41;;;;;;;;;;;10.40;67.30;;;;;;5098609;27;92621;-41
2023/04/15 03:37:06;;;;;;;;;;;10.40;67.30;;;;;;5101376;27;93842;-41
2023/04/15 03:39:32;;;;;;;;;;;10.30;67.20;;;;;;5098587;27;92128;-41
2023/04/15 03:41:58;;;;;;;;;;;10.30;67.20;;;;;;5098863;27;93400;-41
2023/04/15 03:44:25;;;;;;;;;;;10.30;67.20;;;;;;5098401;27;93160;-41
2023/04/15 03:46:50;;;;;;;;;;;10.30;67.30;;;;;;5098446;27;91425;-41
2023/04/15 03:49:16;;;;;;;;;;;10.30;67.20;;;;;;5098756;27;93155;-41
2023/04/15 03:51:41;;;;;;;;;;;10.30;67.20;;;;;;5097511;27;94587;-41
2023/04/15 03:54:07;;;;;;;;;;;10.30;67.20;;;;;;5098093;27;93402;-41
2023/04/15 03:56:32;;;;;;;;;;;10.30;67.30;;;;;;5098381;27;94708;-41
2023/04/15 03:58:58;;;;;;;;;;;10.30;67.20;;;;;;5104836;27;93402;-41
2023/04/15 04:01:23;;;;;;;;;;;10.30;67.30;;;;;;5101590;27;93862;-41
2023/04/15 04:03:49;;;;;;;;;;;10.30;67.20;;;;;;5101150;27;94548;-41
2023/04/15 04:06:14;;;;;;;;;;;10.20;67.20;;;;;;5101480;27;92166;-41
2023/04/15 04:08:40;;;;;;;;;;;10.20;67.20;;;;;;5101902;27;92496;-41
2023/04/15 04:11:05;;;;;;;;;;;10.20;67.30;;;;;;5101339;27;93635;-41
2023/04/15 04:13:31;;;;;;;;;;;10.20;67.30;;;;;;5097254;27;92221;-41
2023/04/15 04:15:56;;;;;;;;;;;10.20;67.20;;;;;;5101808;27;93752;-41
2023/04/15 04:18:22;;;;;;;;;;;10.20;67.20;;;;;;5100059;27;95335;-41
2023/04/15 04:20:47;;;;;;;;;;;10.20;67.20;;;;;;5104516;27;92149;-41
2023/04/15 04:23:13;;;;;;;;;;;10.20;67.30;;;;;;5100919;27;93565;-41
2023/04/15 04:25:38;;;;;;;;;;;10.20;67.30;;;;;;5101693;27;92188;-40
2023/04/15 04:28:04;;;;;;;;;;;10.20;67.30;;;;;;5101408;27;93695;-41
2023/04/15 04:30:29;;;;;;;;;;;10.10;67.20;;;;;;5100830;27;94475;-41
2023/04/15 04:32:55;;;;;;;;;;;10.10;67.20;;;;;;5101254;27;92312;-41
2023/04/15 04:35:20;;;;;;;;;;;10.10;67.20;;;;;;5101806;27;92720;-41
2023/04/15 04:37:46;;;;;;;;;;;10.20;67.30;;;;;;5100794;27;92985;-41
2023/04/15 04:40:12;;;;;;;;;;;10.10;67.20;;;;;;5101341;27;92498;-41
2023/04/15 04:42:37;;;;;;;;;;;10.10;67.30;;;;;;5103318;27;93583;-41
2023/04/15 04:45:03;;;;;;;;;;;10.10;67.20;;;;;;5101350;27;92212;-41
2023/04/15 04:47:29;;;;;;;;;;;10.10;67.20;;;;;;5101060;27;92387;-41
2023/04/15 04:49:54;;;;;;;;;;;10.10;67.20;;;;;;5100322;27;94357;-41
2023/04/15 04:52:20;;;;;;;;;;;10.10;67.30;;;;;;5101219;27;92250;-41
2023/04/15 04:54:46;;;;;;;;;;;10.00;67.20;;;;;;5101119;27;94175;-41
2023/04/15 04:57:12;;;;;;;;;;;10.10;67.20;;;;;;5100281;27;93475;-41
2023/04/15 04:59:38;;;;;;;;;;;10.10;67.30;;;;;;5101497;27;91498;-41
2023/04/15 05:02:03;;;;;;;;;;;10.00;67.20;;;;;;5100816;27;93289;-41
2023/04/15 05:04:30;;;;;;;;;;;10.10;67.20;;;;;;5103829;27;94265;-41
2023/04/15 05:06:56;;;;;;;;;;;10.00;67.20;;;;;;5100098;27;93825;-41
2023/04/15 05:09:22;;;;;;;;;;;10.00;67.20;;;;;;5099385;27;93027;-41
2023/04/15 05:11:47;;;;;;;;;;;10.00;67.40;;;;;;5100612;27;92130;-41
2023/04/15 05:14:13;;;;;;;;;;;10.00;67.20;;;;;;5100088;27;93824;-41
2023/04/15 05:16:38;;;;;;;;;;;10.00;67.20;;;;;;5099651;27;94523;-42
2023/04/15 05:19:04;;;;;;;;;;;10.10;67.10;;;;;;5100841;27;92237;-41
2023/04/15 05:21:30;;;;;;;;;;;10.00;67.20;;;;;;5100632;27;93784;-41
2023/04/15 05:23:55;;;;;;;;;;;10.00;67.20;;;;;;5096656;27;93935;-41
2023/04/15 05:26:21;;;;;;;;;;;10.00;67.80;;;;;;5103919;27;92201;-41
2023/04/15 05:28:46;;;;;;;;;;;10.00;67.30;;;;;;5099823;27;94163;-41
2023/04/15 05:31:12;;;;;;;;;;;10.00;67.20;;;;;;5100138;27;93396;-41
2023/04/15 05:33:39;;;;;;;;;;;10.00;67.20;;;;;;5100023;27;94740;-41
2023/04/15 05:36:05;;;;;;;;;;;10.00;67.30;;;;;;5095860;27;94372;-41
2023/04/15 05:38:30;;;;;;;;;;;10.00;67.30;;;;;;5100588;27;92767;-41
2023/04/15 05:40:56;;;;;;;;;;;10.00;67.30;;;;;;5100613;27;92422;-41
2023/04/15 05:43:21;;;;;;;;;;;10.00;67.40;;;;;;5100101;27;94452;-41
2023/04/15 05:45:47;;;;;;;;;;;10.00;67.30;;;;;;5103136;27;92228;-41
2023/04/15 05:48:12;;;;;;;;;;;10.00;67.30;;;;;;5099768;27;92391;-41
2023/04/15 05:50:40;;;;;;;;;;;10.00;67.30;;;;;;5100207;27;92718;-41
2023/04/15 05:53:06;;;;;;;;;;;10.00;67.30;;;;;;5099867;27;94008;-40
2023/04/15 05:55:31;;;;;;;;;;;10.00;67.40;;;;;;5098846;27;95455;-41
2023/04/15 05:57:57;;;;;;;;;;;10.00;67.40;;;;;;5100046;27;92004;-41
2023/04/15 06:00:22;;;;;;;;;;;10.00;67.30;;;;;;5100158;27;94021;-41
2023/04/15 06:02:48;;;;;;;;;;;10.00;67.40;;;;;;5099716;27;93100;-41
2023/04/15 06:05:14;;;;;;;;;;;10.00;67.30;;;;;;5099663;27;92302;-40
2023/04/15 06:07:39;;;;;;;;;;;10.00;67.30;;;;;;5102588;27;92859;-40
2023/04/15 06:10:06;;;;;;;;;;;10.00;67.20;;;;;;5100122;27;92683;-41
2023/04/15 06:12:31;;;;;;;;;;;10.00;67.30;;;;;;5098941;27;95416;-40
2023/04/15 06:14:57;;;;;;;;;;;10.00;67.20;;;;;;5098660;27;94457;-41
2023/04/15 06:17:22;;;;;;;;;;;10.00;67.10;;;;;;5099372;27;92174;-40
2023/04/15 06:19:49;;;;;;;;;;;10.00;67.20;;;;;;5098453;27;94068;-40
2023/04/15 06:22:15;;;;;;;;;;;10.10;67.30;;;;;;5098721;27;94050;-41
2023/04/15 06:24:40;;;;;;;;;;;10.10;67.10;;;;;;5099599;27;92184;-40
2023/04/15 06:27:06;;;;;;;;;;;10.00;67.10;;;;;;5099652;27;93768;-40
2023/04/15 06:29:31;;;;;;;;;;;10.00;67.20;;;;;;5101887;27;94576;-41
2023/04/15 06:31:56;;;;;;;;;;;10.00;67.10;;;;;;5099510;27;92444;-40
2023/04/15 06:34:22;;;;;;;;;;;10.00;67.10;;;;;;5098754;27;93746;-40
2023/04/15 06:36:47;;;;;;;;;;;10.10;67.20;;;;;;5099945;27;91420;-40
2023/04/15 06:39:13;;;;;;;;;;;10.10;67.00;;;;;;5099380;27;92917;-40
2023/04/15 06:41:38;;;;;;;;;;;10.10;67.10;;;;;;5098874;27;93218;-41
2023/04/15 06:44:04;;;;;;;;;;;10.10;67.10;;;;;;5098315;27;93698;-41
2023/04/15 06:46:30;;;;;;;;;;;10.10;67.10;;;;;;5095004;27;95028;-40
2023/04/15 06:48:55;;;;;;;;;;;10.10;67.10;;;;;;5098806;27;93091;-40
2023/04/15 06:51:21;;;;;;;;;;;10.10;67.10;;;;;;5102731;27;92157;-41
2023/04/15 06:53:46;;;;;;;;;;;10.10;67.20;;;;;;5098937;27;93174;-41
2023/04/15 06:56:12;;;;;;;;;;;10.10;67.20;;;;;;5099281;27;92203;-41
2023/04/15 06:58:37;;;;;;;;;;;10.10;67.20;;;;;;5099708;27;92230;-40
2023/04/15 07:01:03;;;;;;;;;;;10.00;67.20;;;;;;5098647;27;94064;-40
2023/04/15 07:03:28;;;;;;;;;;;10.10;67.40;;;;;;5098256;27;92145;-40
2023/04/15 07:05:54;;;;;;;;;;;10.00;67.40;;;;;;5098772;27;93644;-40
2023/04/15 07:08:19;;;;;;;;;;;10.10;67.40;;;;;;5097770;27;94019;-40
2023/04/15 07:10:46;;;;;;;;;;;10.00;67.30;;;;;;5098801;27;92145;-40
2023/04/15 07:13:11;;;;;;;;;;;10.10;67.30;;;;;;5101791;27;93846;-40
2023/04/15 07:15:37;;;;;;;;;;;10.10;67.20;;;;;;5098612;27;92176;-40
2023/04/15 07:18:02;;;;;;;;;;;10.10;67.20;;;;;;5098923;27;92525;-41
2023/04/15 07:20:28;;;;;;;;;;;10.10;67.20;;;;;;5098494;27;94776;-41
2023/04/15 07:22:53;;;;;;;;;;;10.10;67.20;;;;;;5098886;27;92541;-40
2023/04/15 07:25:21;;;;;;;;;;;10.10;67.20;;;;;;5100171;27;91416;-40
2023/04/15 07:27:46;;;;;;;;;;;10.10;67.20;;;;;;5098015;27;94746;-40
2023/04/15 07:30:12;;;;;;;;;;;10.10;67.20;;;;;;5098766;27;92237;-40
2023/04/15 07:32:37;;;;;;;;;;;10.10;67.20;;;;;;5095590;27;93071;-41
2023/04/15 07:35:03;;;;;;;;;;;10.10;67.20;;;;;;5104915;27;95039;-40
2023/04/15 07:37:29;;;;;;;;;;;10.10;67.20;;;;;;5102643;27;92545;-40
2023/04/15 07:39:54;;;;;;;;;;;10.20;67.20;;;;;;5102159;27;93129;-40
2023/04/15 07:42:20;;;;;;;;;;;10.10;67.20;;;;;;5102686;27;92239;-40
2023/04/15 07:44:46;;;;;;;;;;;10.10;67.10;;;;;;5102894;27;92377;-41
2023/04/15 07:47:11;;;;;;;;;;;10.20;67.10;;;;;;5101743;27;93295;-40
2023/04/15 07:49:37;;;;;;;;;;;10.20;67.00;;;;;;5102493;27;91400;-40
2023/04/15 07:52:03;;;;;;;;;;;10.20;67.00;;;;;;5102253;27;93400;-40
2023/04/15 07:54:28;;;;;;;;;;;10.20;67.00;;;;;;5105141;27;93619;-40
2023/04/15 07:56:54;;;;;;;;;;;10.20;67.00;;;;;;5101202;27;94184;-40
2023/04/15 07:59:20;;;;;;;;;;;10.20;66.90;;;;;;5098049;27;92831;-40
2023/04/15 08:01:45;;;;;;;;;;;10.20;67.00;;;;;;5101336;27;92249;-40
2023/04/15 08:04:11;;;;;;;;;;;10.20;67.00;;;;;;5097591;27;93833;-40
2023/04/15 08:06:38;;;;;;;;;;;10.20;67.00;;;;;;5101127;27;93086;-40
2023/04/15 08:09:04;;;;;;;;;;;10.20;67.00;;;;;;5101864;27;92158;-40
2023/04/15 08:11:30;;;;;;;;;;;10.30;66.90;;;;;;5101730;27;93749;-40
2023/04/15 08:13:56;;;;;;;;;;;10.30;67.00;;;;;;5101269;27;93870;-40
2023/04/15 08:16:23;;;;;;;;;;;10.30;66.90;;;;;;5104349;27;92344;-40
2023/04/15 08:18:49;;;;;;;;;;;10.30;66.70;;;;;;5100975;27;94550;-40
2023/04/15 08:21:15;;;;;;;;;;;10.40;66.80;;;;;;5100750;27;93177;-40
2023/04/15 08:23:41;;;;;;;;;;;10.40;66.80;;;;;;5101813;27;94818;-40
2023/04/15 08:26:07;;;;;;;;;;;10.40;66.80;;;;;;5097067;27;94226;-40
2023/04/15 08:28:33;;;;;;;;;;;10.40;66.80;;;;;;5101535;27;92184;-40
2023/04/15 08:30:58;;;;;;;;;;;10.40;66.80;;;;;;5101503;27;93577;-41
2023/04/15 08:33:24;;;;;;;;;;;10.40;66.80;;;;;;5100803;27;94725;-40
2023/04/15 08:35:50;;;;;;;;;;;10.40;66.70;;;;;;5101415;27;92297;-40
2023/04/15 08:38:15;;;;;;;;;;;10.40;66.70;;;;;;5104992;27;92427;-40
2023/04/15 08:40:41;;;;;;;;;;;10.50;66.80;;;;;;5101930;27;92219;-40
2023/04/15 08:43:12;;;;;;;;;;;10.50;66.80;;;;;;5100432;27;93684;-40
2023/04/15 08:45:38;;;;;;;;;;;10.50;66.80;;;;;;5095750;27;95592;-40
2023/04/15 08:48:04;;;;;;;;;;;10.50;66.70;;;;;;5100569;27;92166;-40
2023/04/15 08:50:31;;;;;;;;;;;10.50;66.80;;;;;;5101013;27;93672;-40
2023/04/15 08:52:58;;;;;;;;;;;10.50;66.80;;;;;;5099812;27;94394;-40
2023/04/15 08:55:24;;;;;;;;;;;10.50;66.80;;;;;;5101213;27;92823;-40
2023/04/15 08:57:50;;;;;;;;;;;10.60;66.80;;;;;;5097186;27;92010;-40
2023/04/15 09:00:16;;;;;;;;;;;10.50;66.80;;;;;;5103498;27;94036;-40
2023/04/15 09:02:41;;;;;;;;;;;10.60;67.00;;;;;;5101010;27;93699;-40
2023/04/15 09:05:07;;;;;;;;;;;10.60;67.40;;;;;;5100154;27;94599;-40
2023/04/15 09:07:34;;;;;;;;;;;10.60;66.90;;;;;;5100938;27;92125;-40
2023/04/15 09:10:00;;;;;;;;;;;10.60;66.90;;;;;;5100164;27;93003;-40
2023/04/15 09:12:26;;;;;;;;;;;10.60;66.80;;;;;;5100309;27;92777;-40
2023/04/15 09:14:52;;;;;;;;;;;10.70;66.90;;;;;;5100309;27;92179;-40
2023/04/15 09:17:19;;;;;;;;;;;10.70;66.90;;;;;;5100350;27;92708;-40
2023/04/15 09:19:45;;;;;;;;;;;10.70;66.90;;;;;;5100447;27;94540;-40
2023/04/15 09:22:11;;;;;;;;;;;10.70;66.90;;;;;;5103805;27;92199;-40
2023/04/15 09:24:38;;;;;;;;;;;10.70;66.90;;;;;;5100027;27;94732;-40
2023/04/15 09:27:04;;;;;;;;;;;10.70;66.90;;;;;;5100924;27;91403;-40
2023/04/15 09:29:30;;;;;;;;;;;10.70;66.90;;;;;;5100260;27;92971;-40
2023/04/15 09:31:55;;;;;;;;;;;10.70;67.00;;;;;;5099303;27;94390;-40
2023/04/15 09:34:33;;;;;;;;;;;10.80;67.00;;;;;;5099499;27;93559;-40
2023/04/15 09:36:59;;;;;;;;;;;10.80;67.00;;;;;;5097303;27;94851;-40
2023/04/15 09:39:25;;;;;;;;;;;10.80;67.00;;;;;;5099739;27;93428;-40
2023/04/15 09:42:03;;;;;;;;;;;10.80;67.00;;;;;;5100310;27;92214;-40
2023/04/15 09:44:28;;;;;;;;;;;10.80;67.00;;;;;;5095067;27;93823;-40
2023/04/15 09:46:54;;;;;;;;;;;10.90;67.10;;;;;;5099875;27;92558;-40
2023/04/15 09:49:19;;;;;;;;;;;10.90;67.80;;;;;;5099981;27;93846;-40
2023/04/15 09:51:46;;;;;;;;;;;10.90;67.10;;;;;;5099918;27;93757;-40
2023/04/15 09:54:11;;;;;;;;;;;10.90;67.10;;;;;;5099969;27;92168;-40
2023/04/15 09:56:40;;;;;;;;;;;10.90;67.10;;;;;;5099566;27;94030;-40
2023/04/15 09:59:07;;;;;;;;;;;10.90;67.10;;;;;;5099057;27;94106;-40
2023/04/15 10:01:32;;;;;;;;;;;11.00;67.20;;;;;;5099683;27;92149;-40
2023/04/15 10:04:01;;;;;;;;;;;11.00;67.20;;;;;;5101902;27;94048;-40
2023/04/15 10:06:27;;;;;;;;;;;11.00;67.10;;;;;;5099784;27;92457;-40
2023/04/15 10:08:53;;;;;;;;;;;11.00;67.10;;;;;;5100006;27;94245;-40
2023/04/15 10:11:20;;;;;;;;;;;11.00;67.10;;;;;;5099376;27;93119;-40
2023/04/15 10:13:46;;;;;;;;;;;11.10;67.10;;;;;;5099128;27;92188;-40
2023/04/15 10:16:13;;;;;;;;;;;11.10;67.10;;;;;;5100090;27;94373;-40
2023/04/15 10:18:43;;;;;;;;;;;11.10;67.10;;;;;;5099067;27;92957;-40
2023/04/15 10:21:09;;;;;;;;;;;11.10;67.10;;;;;;5095641;27;92047;-40
2023/04/15 10:23:35;;;;;;;;;;;11.20;67.20;;;;;;5097708;27;95386;-40
2023/04/15 10:26:03;;;;;;;;;;;11.20;67.10;;;;;;5101801;27;94250;-40
2023/04/15 10:28:28;;;;;;;;;;;11.20;67.20;;;;;;5094741;27;93591;-40
2023/04/15 10:30:54;;;;;;;;;;;11.20;67.10;;;;;;5099037;27;94560;-40
2023/04/15 10:33:21;;;;;;;;;;;11.30;67.30;;;;;;5098962;27;92215;-40
2023/04/15 10:35:47;;;;;;;;;;;11.30;67.20;;;;;;5099650;27;93977;-40
2023/04/15 10:38:32;;;;;;;;;;;11.30;67.20;;;;;;5099221;27;94385;-40
2023/04/15 10:41:17;;;;;;;;;;;11.40;67.30;;;;;;5092096;27;91382;-40
2023/04/15 10:43:52;;;;;;;;;;;11.40;67.20;;;;;;5099638;27;92940;-40
2023/04/15 10:46:20;;;;;;;;;;;11.40;67.10;;;;;;5098739;27;92903;-40
2023/04/15 10:48:46;;;;;;;;;;;11.40;67.20;;;;;;5102160;27;93448;-40
2023/04/15 10:51:12;;;;;;;;;;;11.50;67.20;;;;;;5099052;27;93196;-40
2023/04/15 10:53:41;;;;;;;;;;;11.50;67.10;;;;;;5095478;27;92231;-40
2023/04/15 10:56:07;;;;;;;;;;;11.50;67.10;;;;;;5099135;27;93782;-40
2023/04/15 10:58:42;;;;;;;;;;;11.50;67.00;;;;;;5098596;27;94538;-40
2023/04/15 11:01:07;;;;;;;;;;;11.50;67.10;;;;;;5098948;27;92270;-40
2023/04/15 11:03:37;;;;;;;;;;;11.60;67.10;;;;;;5095052;27;92566;-40
2023/04/15 11:06:04;;;;;;;;;;;11.60;67.10;;;;;;5098743;27;92870;-40
2023/04/15 11:08:48;;;;;;;;;;;11.60;67.00;;;;;;5102372;27;92084;-40
2023/04/15 11:11:13;;;;;;;;;;;11.60;67.10;;;;;;5102928;27;93996;-40
2023/04/15 11:13:47;;;;;;;;;;;11.60;67.00;;;;;;5101980;27;93174;-40
2023/04/15 11:16:12;;;;;;;;;;;11.70;67.10;;;;;;5102758;27;94751;-40
2023/04/15 11:18:38;;;;;;;;;;;11.70;67.10;;;;;;5101761;27;94495;-40
2023/04/15 11:21:04;;;;;;;;;;;11.70;67.10;;;;;;5102658;27;92183;-40
2023/04/15 11:23:33;;;;;;;;;;;11.70;67.10;;;;;;5102776;27;93558;-40
2023/04/15 11:25:59;;;;;;;;;;;11.70;67.00;;;;;;5101989;27;94631;-41
2023/04/15 11:28:26;;;;;;;;;;;11.80;67.00;;;;;;5102653;27;92156;-40
2023/04/15 11:30:51;;;;;;;;;;;11.80;67.00;;;;;;5098863;27;94242;-40
2023/04/15 11:33:17;;;;;;;;;;;11.80;67.00;;;;;;5105162;27;93091;-40
2023/04/15 11:35:42;;;;;;;;;;;11.80;67.00;;;;;;5102457;27;92666;-40
2023/04/15 11:38:12;;;;;;;;;;;11.80;66.80;;;;;;5096924;27;95151;-40
2023/04/15 11:40:38;;;;;;;;;;;11.90;66.90;;;;;;5102347;27;92470;-40
2023/04/15 11:43:04;;;;;;;;;;;11.90;66.80;;;;;;5102285;27;93758;-40
2023/04/15 11:45:30;;;;;;;;;;;11.90;66.90;;;;;;5101306;27;94286;-40
2023/04/15 11:48:03;;;;;;;;;;;11.90;66.90;;;;;;5102167;27;92162;-40
2023/04/15 11:50:29;;;;;;;;;;;11.90;66.80;;;;;;5102550;27;92450;-40
2023/04/15 11:52:55;;;;;;;;;;;12.00;66.90;;;;;;5101504;27;94241;-40
2023/04/15 11:55:22;;;;;;;;;;;12.00;66.70;;;;;;5105752;27;91911;-40
2023/04/15 11:57:49;;;;;;;;;;;12.00;66.70;;;;;;5101167;27;94378;-40
2023/04/15 12:00:16;;;;;;;;;;;12.00;66.70;;;;;;5101875;27;92432;-40
2023/04/15 12:02:42;;;;;;;;;;;12.10;66.70;;;;;;5101052;27;93828;-40
2023/04/15 12:05:08;;;;;;;;;;;12.10;66.70;;;;;;5101219;27;94414;-40
2023/04/15 12:07:53;;;;;;;;;;;12.10;66.70;;;;;;5101880;27;92040;-40
2023/04/15 12:10:19;;;;;;;;;;;12.20;66.80;;;;;;5101877;27;93656;-40
2023/04/15 12:12:47;;;;;;;;;;;12.20;66.70;;;;;;5100655;27;94694;-40
2023/04/15 12:15:13;;;;;;;;;;;12.20;66.70;;;;;;5104326;27;92254;-41
2023/04/15 12:17:39;;;;;;;;;;;12.20;66.60;;;;;;5100478;27;94594;-40
2023/04/15 12:20:04;;;;;;;;;;;12.20;66.60;;;;;;5102819;27;91396;-41
2023/04/15 12:22:36;;;;;;;;;;;12.20;66.60;;;;;;5101678;27;93458;-40
2023/04/15 12:25:01;;;;;;;;;;;12.30;66.50;;;;;;5098231;27;93138;-40
2023/04/15 12:27:27;;;;;;;;;;;12.30;66.50;;;;;;5100522;27;93132;-40
2023/04/15 12:30:02;;;;;;;;;;;12.30;66.40;;;;;;5101232;27;94449;-40
2023/04/15 12:32:27;;;;;;;;;;;12.30;66.40;;;;;;5100812;27;94532;-40
2023/04/15 12:34:53;;;;;;;;;;;12.40;66.40;;;;;;5101354;27;92154;-40
2023/04/15 12:37:18;;;;;;;;;;;12.30;66.30;;;;;;5104495;27;92320;-40
2023/04/15 12:39:46;;;;;;;;;;;12.40;66.40;;;;;;5101090;27;92109;-40
2023/04/15 12:42:13;;;;;;;;;;;12.40;66.40;;;;;;5101101;27;93868;-40
2023/04/15 12:44:39;;;;;;;;;;;12.40;66.30;;;;;;5101412;27;92473;-40
2023/04/15 12:47:05;;;;;;;;;;;12.50;66.10;;;;;;5101652;27;92569;-40
2023/04/15 12:49:31;;;;;;;;;;;12.50;66.20;;;;;;5101032;27;93820;-40
2023/04/15 12:51:58;;;;;;;;;;;12.50;66.10;;;;;;5099687;27;95488;-40
2023/04/15 12:54:25;;;;;;;;;;;12.50;66.20;;;;;;5100876;27;92711;-40
2023/04/15 12:56:51;;;;;;;;;;;12.50;66.20;;;;;;5100935;27;93856;-40
2023/04/15 12:59:17;;;;;;;;;;;12.50;66.10;;;;;;5103409;27;94606;-40
2023/04/15 13:01:43;;;;;;;;;;;12.60;66.10;;;;;;5100966;27;93909;-40
2023/04/15 13:04:08;;;;;;;;;;;12.60;66.10;;;;;;5100967;27;94751;-40
2023/04/15 13:06:34;;;;;;;;;;;12.60;66.10;;;;;;5100814;27;93204;-40
2023/04/15 13:09:00;;;;;;;;;;;12.60;66.10;;;;;;5101512;27;93992;-40
2023/04/15 13:11:26;;;;;;;;;;;12.60;66.10;;;;;;5100082;27;94286;-40
2023/04/15 13:13:51;;;;;;;;;;;12.70;66.20;;;;;;5100172;27;92287;-40
2023/04/15 13:16:17;;;;;;;;;;;12.60;66.10;;;;;;5100273;27;93855;-40
2023/04/15 13:18:44;;;;;;;;;;;12.70;66.10;;;;;;5100434;27;93183;-41
2023/04/15 13:21:11;;;;;;;;;;;12.70;66.10;;;;;;5099882;27;93002;-40
2023/04/15 13:23:36;;;;;;;;;;;12.70;66.00;;;;;;5099901;27;94748;-40
2023/04/15 13:26:02;;;;;;;;;;;12.80;66.10;;;;;;5100422;27;92095;-40
2023/04/15 13:28:28;;;;;;;;;;;12.80;66.00;;;;;;5100389;27;93914;-40
2023/04/15 13:30:54;;;;;;;;;;;12.90;65.90;;;;;;5098971;27;94440;-40
2023/04/15 13:33:19;;;;;;;;;;;12.90;66.10;;;;;;5101036;27;91615;-41
2023/04/15 13:35:45;;;;;;;;;;;12.90;66.00;;;;;;5100766;27;92108;-41
2023/04/15 13:38:10;;;;;;;;;;;12.90;66.00;;;;;;5099729;27;94569;-40
2023/04/15 13:40:36;;;;;;;;;;;12.90;65.90;;;;;;5099360;27;93085;-40
2023/04/15 13:43:02;;;;;;;;;;;13.00;65.90;;;;;;5102607;27;95301;-40
2023/04/15 13:45:27;;;;;;;;;;;13.00;65.90;;;;;;5100089;27;92621;-41
2023/04/15 13:47:54;;;;;;;;;;;13.00;65.90;;;;;;5100517;27;92603;-40
2023/04/15 13:50:20;;;;;;;;;;;13.10;65.90;;;;;;5099664;27;94411;-40
2023/04/15 13:52:45;;;;;;;;;;;13.10;65.90;;;;;;5100391;27;92202;-40
2023/04/15 13:55:11;;;;;;;;;;;13.20;65.70;;;;;;5099544;27;93722;-41
2023/04/15 13:57:36;;;;;;;;;;;13.20;65.80;;;;;;5099764;27;93468;-41
2023/04/15 14:00:03;;;;;;;;;;;13.20;65.80;;;;;;5099904;27;92189;-41
2023/04/15 14:02:28;;;;;;;;;;;13.20;65.70;;;;;;5101137;27;95740;-41
2023/04/15 14:04:54;;;;;;;;;;;13.20;65.80;;;;;;5099409;27;93207;-40
2023/04/15 14:07:19;;;;;;;;;;;13.30;65.80;;;;;;5099950;27;95068;-40
2023/04/15 14:09:45;;;;;;;;;;;13.30;65.60;;;;;;5099376;27;94553;-40